• Join FlightAware (Why Join?)
  • Login
  • US Flag 
11:25AM EDT


 

Airport Tracker/Info


-or-


 

Live Flight TrackerFlight Track Log ✈ JBU56 ✈ 30-Nov-2013 ✈ KIAD - KBOS

Flight Track Log - Related Links

Times and Time Zones

All times are in EST time to prevent confusion due to time zone crossing. See the JBU56 flight status page for this flight to view local times or setup timezone preferences in your user account.

Time Position Orientation Groundspeed Altitude Reporting Facility
EST Latitude Longitude Course Direction KTS MPH feet Rate Location/Type
10:08AM 38.9500 -77.5000 90° East 161 185 1,700  Level Potomac TRACON
10:09AM 39.0000 -77.5500 322° Northwest 220 253 3,800 2,280 Climbing Potomac TRACON
10:10AM 39.1264 -77.1528 78° East  Level Estimated
10:10AM 39.0667 -77.5500 360° North 292 336 6,300  Level Potomac TRACON
10:11AM 39.1858 -77.0501 90° East  Level Estimated
10:11AM 39.1167 -77.4667 52° Northeast 291 335 9,800  Level Potomac TRACON
10:12AM 39.2452 -76.9473 74° East  Level Estimated
10:12AM 39.1667 -77.3667 57° Northeast 325 374 10,000  Level Potomac TRACON
10:13AM 39.3045 -76.8442 90° East  Level Estimated
10:14AM 39.1183 -77.1192 104° East 374 430 11,500  Level Washington Center
10:15AM 39.0992 -76.9931 101° East 368 423 13,900 2,220 Climbing Washington Center
10:16AM 39.1067 -76.8728 85° East 356 410 16,000 2,220 Climbing Washington Center
10:17AM 39.1164 -76.7339 85° East 369 425 18,400 1,860 Climbing Washington Center
10:18AM 39.1261 -76.5869 85° East 389 448 19,800 1,560 Climbing Washington Center
10:19AM 39.1375 -76.4344 84° East 413 475 21,600 1,560 Climbing Washington Center
10:20AM 39.1469 -76.2767 86° East 427 491 23,000 660 Climbing Washington Center
10:21AM 39.1667 -76.1056 81° East 433 498 23,000 180 Level Washington Center
10:22AM 39.1817 -75.9503 83° East 438 504 23,400 1,080 Climbing Washington Center
10:23AM 39.2425 -75.8167 60° Northeast 431 496 25,200 1,620 Climbing Washington Center
10:24AM 39.3300 -75.7017 45° Northeast 419 482 26,700 1,320 Climbing Washington Center
10:25AM 39.4178 -75.5917 44° Northeast 430 495 27,900 1,200 Climbing Washington Center
10:26AM 39.5092 -75.4733 45° Northeast 444 511 29,200 1,380 Climbing Washington Center
10:27AM 39.5986 -75.3544 46° Northeast 449 517 30,800 540 Climbing Washington Center
10:29AM 39.7908 -75.0828 47° Northeast 459 528 31,000 60 Climbing New York Center
10:30AM 39.8831 -74.9531 47° Northeast 471 542 31,000  Level New York Center
10:31AM 39.9533 -74.8489 49° Northeast 471 542 31,000  Level New York Center
10:32AM 40.0567 -74.6922 49° Northeast 471 542 31,000  Level New York Center
10:33AM 40.1336 -74.5692 51° Northeast 471 542 31,000  Level New York Center
10:34AM 40.2256 -74.4356 48° Northeast 481 554 31,000  Level New York Center
10:35AM 40.3108 -74.3011 50° Northeast 481 554 31,000  Level New York Center
10:37AM 40.5186 -73.9831 49° Northeast 476 548 31,000  Level Boston Center
10:38AM 40.6050 -73.8475 50° Northeast 480 552 31,000  Level Boston Center
10:39AM 40.6897 -73.7125 50° Northeast 480 552 31,000 -1,020 Level Boston Center
10:40AM 40.7756 -73.5783 50° Northeast 478 550 29,000 -1,980 Descending Boston Center
10:41AM 40.8578 -73.4447 51° Northeast 469 540 27,000 -1,380 Descending Boston Center
10:42AM 40.9447 -73.3161 48° Northeast 450 518 26,300 -1,200 Descending Boston Center
10:43AM 41.0267 -73.1964 48° Northeast 442 509 24,700 -1,500 Descending Boston Center
10:44AM 41.1022 -73.0722 51° Northeast 437 503 23,200 -840 Descending Boston Center
10:45AM 41.1581 -72.9308 62° Northeast 435 501 23,000 -120 Descending Boston Center
10:46AM 41.2125 -72.7886 63° Northeast 434 499 23,000  Level Boston Center
10:47AM 41.2669 -72.6469 63° Northeast 434 499 23,000  Level Boston Center
10:48AM 41.3242 -72.4997 63° Northeast 437 503 23,000  Level Boston Center
10:49AM 41.3794 -72.3558 63° Northeast 435 501 23,000 -180 Level Boston Center
10:50AM 41.4447 -72.1828 63° Northeast 435 501 22,700 -1,320 Descending Boston Center
10:51AM 41.4997 -72.0400 63° Northeast 433 498 20,400 -2,280 Descending Boston Center
10:52AM 41.5514 -71.8969 64° Northeast 418 481 18,200 -1,980 Descending Boston Center
10:53AM 41.6003 -71.7653 64° Northeast 402 463 16,500 -2,100 Descending Boston Center
10:54AM 41.6481 -71.6364 64° Northeast 393 452 14,000 -2,220 Descending Boston Center
10:55AM 41.6961 -71.5089 63° Northeast 358 412 12,000 -1,500 Descending Boston Center
10:57AM 41.7372 -71.4014 63° Northeast 327 376 11,000 -480 Descending Boston Center
10:58AM 41.7997 -71.3200 44° Northeast 298 343 11,000 -60 Level Boston Center
10:59AM 41.8672 -71.2564 35° Northeast 298 343 10,900 -660 Descending Boston Center
11:00AM 41.9331 -71.1950 35° Northeast 291 335 9,700 -1,200 Descending Boston Center
11:01AM 41.9989 -71.1358 34° Northeast 286 329 8,500 -1,380 Descending Boston Center
11:01AM 42.0667 -71.0833 30° Northeast 273 314 7,100 -1,320 Descending KA90
11:02AM 42.1333 -71.0333 29° Northeast 268 308 6,000 -600 Descending KA90
11:03AM 42.2000 -70.9833 29° Northeast 265 305 6,000  Level KA90
11:04AM 42.2667 -70.9333 29° Northeast 266 306 6,000  Level KA90
11:05AM 42.3333 -70.9167 10° North 268 308 6,000  Level KA90
11:06AM 42.4000 -70.9333 350° North 228 262 6,000  Level KA90
11:07AM 42.4500 -70.9667 334° Northwest 210 242 6,000 -360 Level KA90
11:08AM 42.4833 -71.0167 312° West 182 209 5,400 -1,020 Descending KA90
11:10AM 42.5167 -71.0667 312° West 185 213 4,000 -960 Descending KA90
11:10AM 42.5333 -71.1333 289° West 184 212 3,500 -540 Descending KA90
11:11AM 42.5000 -71.1500 200° South 170 196 3,000 -480 Descending KA90
11:12AM 42.4500 -71.1333 166° South 165 190 2,600 -660 Descending KA90
11:13AM 42.4333 -71.0833 114° Southeast 158 182 1,700 -900 Descending KA90
11:14AM 42.4000 -71.0500 144° Southeast 136 157 900 -840 Descending KA90